Time;durP1;ratioP1;P1;durP2;ratioP2;P2;SDS_P1;SDS_P2;PMS_P1;PMS_P2;Temp;Humidity;BMP_temperature;BMP_pressure;BME280_temperature;BME280_humidity;BME280_pressure;Samples;Min_cycle;Max_cycle;Signal;HPM_P1;HPM_P2
2022/01/10 00:00:46;;;;;;;1.65;1.20;;;6.10;89.60;;;;;;5013878;28;20061;-72
2022/01/10 00:03:12;;;;;;;1.80;1.20;;;6.10;89.60;;;;;;5013597;28;20101;-71
2022/01/10 00:05:38;;;;;;;2.55;1.48;;;6.00;89.30;;;;;;5013563;28;20018;-71
2022/01/10 00:08:04;;;;;;;1.98;1.10;;;6.10;88.90;;;;;;5012122;28;20045;-72
2022/01/10 00:10:31;;;;;;;2.00;1.45;;;6.10;88.80;;;;;;5013465;28;20033;-71
2022/01/10 00:12:57;;;;;;;2.35;1.08;;;6.10;89.20;;;;;;5013606;28;20034;-72
2022/01/10 00:15:23;;;;;;;2.67;1.20;;;6.10;88.90;;;;;;5013673;28;20467;-71
2022/01/10 00:17:49;;;;;;;2.00;1.20;;;6.10;89.00;;;;;;5013221;28;20034;-71
2022/01/10 00:20:19;;;;;;;1.38;1.10;;;6.10;88.80;;;;;;5013344;28;20032;-72
2022/01/10 00:22:48;;;;;;;1.63;1.20;;;6.10;88.90;;;;;;5013300;28;20030;-72
2022/01/10 00:25:16;;;;;;;1.73;1.20;;;6.10;88.50;;;;;;5013165;28;20426;-72
2022/01/10 00:27:43;;;;;;;2.20;1.10;;;6.10;88.60;;;;;;5013002;28;20041;-73
2022/01/10 00:30:10;;;;;;;1.58;1.17;;;6.10;88.80;;;;;;5013135;28;20021;-72
2022/01/10 00:32:37;;;;;;;2.78;1.10;;;6.00;88.50;;;;;;5013088;28;20029;-71
2022/01/10 00:35:04;;;;;;;1.42;1.10;;;6.00;88.80;;;;;;5013263;28;20025;-72
2022/01/10 00:37:29;;;;;;;2.85;1.50;;;6.10;88.10;;;;;;5012927;28;20022;-71
2022/01/10 00:39:55;;;;;;;2.45;1.30;;;6.00;88.10;;;;;;5013055;28;20022;-71
2022/01/10 00:42:21;;;;;;;1.63;1.20;;;6.00;88.00;;;;;;5012949;28;20018;-71
2022/01/10 00:44:51;;;;;;;1.75;1.08;;;6.00;87.90;;;;;;5012976;28;20025;-72
2022/01/10 00:47:18;;;;;;;2.22;1.23;;;6.00;88.20;;;;;;5012823;28;20040;-71
2022/01/10 00:49:44;;;;;;;2.20;1.20;;;6.00;88.20;;;;;;5011619;28;20457;-71
2022/01/10 00:52:10;;;;;;;1.80;1.20;;;6.00;88.30;;;;;;5011731;28;20030;-71
2022/01/10 00:54:36;;;;;;;1.65;1.10;;;6.00;87.70;;;;;;5012595;28;20046;-71
2022/01/10 00:57:02;;;;;;;1.67;1.20;;;6.00;88.30;;;;;;5012939;28;20080;-70
2022/01/10 00:59:28;;;;;;;1.65;1.10;;;6.00;88.00;;;;;;5012759;28;20030;-71
2022/01/10 01:01:53;;;;;;;1.65;1.15;;;6.00;88.10;;;;;;5011514;28;20026;-72
2022/01/10 01:04:19;;;;;;;1.88;1.17;;;6.00;88.30;;;;;;5012773;28;20022;-72
2022/01/10 01:06:45;;;;;;;1.70;1.20;;;6.00;87.70;;;;;;5012630;28;20037;-72
2022/01/10 01:09:15;;;;;;;1.35;1.00;;;6.00;88.40;;;;;;5012828;28;20065;-71
2022/01/10 01:14:26;;;;;;;1.58;1.20;;;6.00;87.20;;;;;;5013094;28;20391;-73
2022/01/10 01:20:08;;;;;;;1.65;1.10;;;5.90;87.40;;;;;;5012875;28;20033;-71
2022/01/10 01:25:18;;;;;;;1.33;1.00;;;5.90;87.10;;;;;;5012595;28;20032;-70
2022/01/10 01:27:45;;;;;;;1.42;1.10;;;6.00;87.90;;;;;;5012536;28;20021;-71
2022/01/10 01:30:11;;;;;;;1.88;1.20;;;5.90;87.90;;;;;;5012536;28;20061;-71
2022/01/10 01:32:38;;;;;;;2.17;1.10;;;5.90;87.90;;;;;;5012566;28;20036;-71
2022/01/10 01:35:07;;;;;;;2.03;1.17;;;5.90;88.10;;;;;;5012459;28;20144;-71
2022/01/10 01:37:36;;;;;;;1.55;1.20;;;6.00;87.80;;;;;;5012801;28;20360;-71
2022/01/10 01:40:04;;;;;;;1.67;1.00;;;6.00;88.40;;;;;;5014960;28;20124;-72
2022/01/10 01:42:34;;;;;;;1.65;1.15;;;6.00;88.00;;;;;;5016279;28;20026;-73
2022/01/10 01:45:02;;;;;;;1.75;1.20;;;6.00;88.30;;;;;;5016271;28;20018;-72
2022/01/10 01:47:27;;;;;;;2.53;1.30;;;6.00;88.50;;;;;;5016320;28;20022;-73
2022/01/10 01:49:53;;;;;;;1.70;1.05;;;6.00;87.80;;;;;;5016375;28;20022;-72
2022/01/10 01:52:19;;;;;;;2.00;1.10;;;6.00;88.20;;;;;;5016254;28;20084;-70
2022/01/10 01:54:45;;;;;;;1.80;1.05;;;6.00;88.10;;;;;;5015794;28;20471;-70
2022/01/10 01:57:10;;;;;;;1.80;1.10;;;6.00;88.30;;;;;;5016268;28;20018;-71
2022/01/10 01:59:37;;;;;;;2.13;1.23;;;6.00;87.90;;;;;;5016567;28;20033;-71
2022/01/10 02:02:03;;;;;;;3.20;1.15;;;6.00;88.40;;;;;;5016346;28;20026;-72
2022/01/10 02:04:29;;;;;;;1.98;1.00;;;5.90;88.10;;;;;;5016549;28;20072;-72
2022/01/10 02:06:54;;;;;;;1.27;1.10;;;5.90;88.10;;;;;;5015826;28;20422;-72
2022/01/10 02:09:20;;;;;;;2.45;1.33;;;5.90;88.30;;;;;;5015768;28;20100;-71
2022/01/10 02:11:46;;;;;;;1.35;1.10;;;5.90;88.50;;;;;;5015737;28;20107;-71
2022/01/10 02:14:14;;;;;;;2.05;1.25;;;6.00;88.40;;;;;;5015458;28;20492;-72
2022/01/10 02:16:43;;;;;;;2.15;1.10;;;6.00;89.00;;;;;;5015549;28;20038;-71
2022/01/10 02:19:09;;;;;;;1.52;1.10;;;6.00;88.60;;;;;;5014275;28;20049;-71
2022/01/10 02:21:35;;;;;;;1.60;1.20;;;6.00;88.70;;;;;;5015643;28;20395;-71
2022/01/10 02:24:03;;;;;;;0.95;0.85;;;6.00;88.80;;;;;;5015367;28;20026;-71
2022/01/10 02:26:29;;;;;;;1.45;1.10;;;6.00;88.60;;;;;;5015455;28;20032;-72
2022/01/10 02:28:54;;;;;;;1.73;1.10;;;6.00;89.00;;;;;;5015407;28;20029;-71
2022/01/10 02:31:20;;;;;;;1.85;1.10;;;6.00;88.40;;;;;;5015372;28;20030;-71
2022/01/10 02:33:48;;;;;;;2.05;1.20;;;6.00;88.90;;;;;;5015262;28;20030;-71
2022/01/10 02:36:22;;;;;;;1.50;1.10;;;6.00;88.40;;;;;;5014065;28;20080;-72
2022/01/10 02:38:50;;;;;;;1.70;1.02;;;6.00;88.30;;;;;;5014054;28;20026;-71
2022/01/10 02:41:34;;;;;;;1.73;1.10;;;6.00;88.50;;;;;;5015154;28;20057;-71
2022/01/10 02:44:08;;;;;;;1.60;0.82;;;6.00;88.70;;;;;;5015186;28;20040;-71
2022/01/10 02:46:35;;;;;;;;;;;6.00;88.70;;;;;;5015435;28;20030;-71
2022/01/10 02:49:06;;;;;;;1.38;0.98;;;6.00;88.80;;;;;;5014780;28;20311;-70
2022/01/10 02:51:32;;;;;;;2.13;1.13;;;6.00;88.60;;;;;;5015264;28;20030;-71
2022/01/10 02:53:58;;;;;;;1.20;0.98;;;6.00;88.30;;;;;;5014685;28;20487;-71
2022/01/10 02:56:23;;;;;;;2.70;1.00;;;6.00;88.30;;;;;;5013637;28;20121;-72
2022/01/10 02:58:49;;;;;;;4.32;1.10;;;6.10;88.50;;;;;;5014930;28;20098;-72
2022/01/10 03:01:15;;;;;;;2.00;1.30;;;6.10;88.90;;;;;;5014988;28;20080;-71
2022/01/10 03:03:41;;;;;;;1.75;1.10;;;6.10;88.20;;;;;;5014678;28;20349;-72
2022/01/10 03:06:06;;;;;;;2.65;1.27;;;6.10;87.90;;;;;;5014482;28;20034;-71
2022/01/10 03:08:33;;;;;;;1.60;1.00;;;6.10;88.10;;;;;;5014501;28;20426;-71
2022/01/10 03:10:59;;;;;;;1.80;1.23;;;6.10;88.10;;;;;;5014798;28;20034;-72
2022/01/10 03:13:25;;;;;;;3.47;1.15;;;6.10;88.20;;;;;;5014516;28;20494;-70
2022/01/10 03:15:50;;;;;;;2.47;1.10;;;6.10;88.10;;;;;;5014609;28;20103;-72
2022/01/10 03:18:16;;;;;;;1.77;1.02;;;6.10;88.10;;;;;;5014408;28;20036;-71
2022/01/10 03:20:42;;;;;;;1.70;1.10;;;6.20;88.30;;;;;;5014370;28;20072;-72
2022/01/10 03:23:08;;;;;;;1.90;1.08;;;6.20;88.40;;;;;;5014509;28;20036;-71
2022/01/10 03:25:34;;;;;;;3.72;1.10;;;6.20;88.10;;;;;;5014464;28;20037;-72
2022/01/10 03:27:59;;;;;;;1.85;1.10;;;6.20;87.90;;;;;;5014411;28;20029;-71
2022/01/10 03:30:26;;;;;;;1.40;1.08;;;6.20;88.00;;;;;;5013077;28;20026;-71
2022/01/10 03:32:52;;;;;;;2.13;1.17;;;6.20;87.90;;;;;;5014263;28;20106;-72
2022/01/10 03:35:18;;;;;;;1.60;1.10;;;6.20;87.90;;;;;;5014069;28;20403;-71
2022/01/10 03:37:44;;;;;;;2.65;1.10;;;6.30;87.80;;;;;;5013996;28;20068;-71
2022/01/10 03:40:11;;;;;;;1.42;0.90;;;6.20;87.60;;;;;;5014134;28;20033;-71
2022/01/10 03:42:37;;;;;;;2.97;1.10;;;6.20;87.60;;;;;;5014046;28;20014;-72
2022/01/10 03:45:07;;;;;;;2.05;0.90;;;6.20;87.20;;;;;;5012597;28;20030;-72
2022/01/10 03:47:32;;;;;;;3.45;1.10;;;6.20;87.30;;;;;;5013951;28;20034;-71
2022/01/10 03:49:58;;;;;;;1.63;1.00;;;6.20;87.50;;;;;;5014067;28;20075;-71
2022/01/10 03:52:25;;;;;;;3.17;1.00;;;6.20;87.50;;;;;;5013949;28;20026;-71
2022/01/10 03:54:51;;;;;;;1.83;0.90;;;6.30;87.30;;;;;;5013727;28;20046;-72
2022/01/10 03:57:17;;;;;;;1.98;1.15;;;6.20;87.10;;;;;;5013983;28;20092;-72
2022/01/10 03:59:42;;;;;;;1.42;0.90;;;6.30;87.20;;;;;;5014169;28;20028;-72
2022/01/10 04:02:08;;;;;;;2.38;0.90;;;6.30;87.00;;;;;;5013250;28;20072;-71
2022/01/10 04:04:36;;;;;;;1.65;0.90;;;6.30;87.10;;;;;;5013653;28;20022;-73
2022/01/10 04:07:03;;;;;;;3.67;1.40;;;6.30;87.00;;;;;;5013264;28;20045;-71
2022/01/10 04:09:29;;;;;;;2.42;0.90;;;6.30;86.90;;;;;;5013645;28;20025;-71
2022/01/10 04:11:54;;;;;;;1.35;0.90;;;6.30;86.80;;;;;;5013522;28;20036;-71
2022/01/10 04:14:20;;;;;;;1.10;1.00;;;6.30;86.70;;;;;;5013571;28;20028;-71
2022/01/10 04:16:46;;;;;;;2.08;0.80;;;6.20;86.90;;;;;;5012037;28;20030;-71
2022/01/10 04:19:12;;;;;;;3.05;1.08;;;6.20;87.10;;;;;;5013317;28;20523;-71
2022/01/10 04:21:38;;;;;;;1.75;0.90;;;6.20;86.80;;;;;;5013351;28;20034;-71
2022/01/10 04:24:04;;;;;;;1.42;0.90;;;6.20;87.00;;;;;;5013193;28;20032;-72
2022/01/10 04:26:30;;;;;;;2.33;1.00;;;6.20;86.60;;;;;;5013237;28;20112;-71
2022/01/10 04:28:55;;;;;;;1.73;1.00;;;6.20;87.20;;;;;;5011916;28;20117;-72
2022/01/10 04:31:21;;;;;;;2.67;0.95;;;6.20;87.20;;;;;;5011524;28;20041;-71
2022/01/10 04:33:47;;;;;;;2.35;0.90;;;6.20;86.70;;;;;;5012125;28;20452;-72
2022/01/10 04:36:13;;;;;;;1.65;0.90;;;6.20;86.90;;;;;;5013106;28;20030;-72
2022/01/10 04:38:42;;;;;;;2.10;0.93;;;6.20;87.10;;;;;;5013093;28;20026;-72
2022/01/10 04:41:08;;;;;;;3.67;1.77;;;6.10;86.50;;;;;;5013205;28;20066;-71
2022/01/10 04:43:35;;;;;;;1.73;0.90;;;6.10;86.70;;;;;;5013327;28;20415;-72
2022/01/10 04:46:01;;;;;;;1.65;0.80;;;6.10;86.70;;;;;;5013215;28;20048;-71
2022/01/10 04:48:27;;;;;;;1.13;0.90;;;6.10;86.30;;;;;;5012940;28;20387;-72
2022/01/10 04:53:33;;;;;;;1.80;0.88;;;6.10;86.00;;;;;;5012836;28;20026;-72
2022/01/10 04:55:59;;;;;;;4.57;1.52;;;6.10;86.40;;;;;;5012615;28;20530;-72
2022/01/10 04:58:25;;;;;;;1.85;1.10;;;6.10;86.40;;;;;;5012872;28;20145;-71
2022/01/10 05:00:53;;;;;;;2.95;1.08;;;6.10;86.70;;;;;;5012773;28;20065;-71
2022/01/10 05:03:19;;;;;;;2.30;1.20;;;6.10;86.60;;;;;;5012718;28;20024;-72
2022/01/10 05:05:46;;;;;;;3.15;1.10;;;6.10;86.20;;;;;;5012461;28;20463;-72
2022/01/10 05:08:12;;;;;;;3.58;1.30;;;6.10;86.40;;;;;;5012506;28;20030;-72
2022/01/10 05:10:38;;;;;;;2.53;1.10;;;6.10;86.10;;;;;;5012492;28;20077;-71
2022/01/10 05:13:03;;;;;;;2.08;1.27;;;6.10;86.30;;;;;;5013232;28;20341;-73
2022/01/10 05:15:32;;;;;;;2.45;1.20;;;6.10;86.30;;;;;;5016806;28;20029;-71
2022/01/10 05:17:58;;;;;;;3.13;1.40;;;6.10;86.20;;;;;;5016643;28;20021;-71
2022/01/10 05:20:23;;;;;;;2.53;1.42;;;6.10;86.00;;;;;;5016526;28;20026;-72
2022/01/10 05:22:49;;;;;;;3.40;1.20;;;6.10;86.00;;;;;;5015391;28;20372;-72
2022/01/10 05:25:15;;;;;;;3.08;1.30;;;6.10;85.90;;;;;;5016507;28;20619;-73
2022/01/10 05:27:40;;;;;;;3.22;1.10;;;6.10;85.60;;;;;;5016589;28;20037;-71
2022/01/10 05:30:07;;;;;;;2.22;1.23;;;6.20;85.70;;;;;;5016521;28;20014;-71
2022/01/10 05:32:33;;;;;;;2.55;0.95;;;6.20;85.50;;;;;;5016497;28;20029;-73
2022/01/10 05:34:58;;;;;;;1.75;1.17;;;6.20;85.70;;;;;;5016425;28;20022;-72
2022/01/10 05:37:24;;;;;;;3.33;1.40;;;6.20;85.60;;;;;;5016199;28;20014;-72
2022/01/10 05:39:50;;;;;;;3.30;1.40;;;6.20;85.50;;;;;;5016487;28;20026;-72
2022/01/10 05:42:18;;;;;;;3.95;1.35;;;6.20;85.50;;;;;;5014901;28;20144;-72
2022/01/10 05:44:43;;;;;;;2.10;1.10;;;6.20;85.40;;;;;;5015963;28;20105;-72
2022/01/10 05:47:09;;;;;;;2.75;1.30;;;6.10;85.10;;;;;;5016145;28;20133;-72
2022/01/10 05:49:37;;;;;;;4.43;1.30;;;6.20;85.40;;;;;;5015992;28;20332;-72
2022/01/10 05:52:04;;;;;;;2.10;1.02;;;6.20;85.60;;;;;;5016076;28;20034;-72
2022/01/10 05:54:29;;;;;;;1.67;1.10;;;6.20;85.60;;;;;;5015804;28;20042;-72
2022/01/10 05:56:55;;;;;;;4.13;1.25;;;6.20;85.20;;;;;;5015740;28;20040;-72
2022/01/10 05:59:21;;;;;;;2.17;1.20;;;6.20;85.20;;;;;;5013983;28;20440;-72
2022/01/10 06:01:47;;;;;;;4.88;2.22;;;6.20;84.80;;;;;;5015948;28;20034;-73
2022/01/10 06:04:12;;;;;;;4.07;1.33;;;6.20;84.50;;;;;;5015700;28;20034;-71
2022/01/10 06:06:38;;;;;;;3.20;1.45;;;6.20;84.30;;;;;;5015627;28;20037;-73
2022/01/10 06:09:04;;;;;;;4.15;1.38;;;6.30;84.50;;;;;;5015585;28;20474;-73
2022/01/10 06:11:30;;;;;;;5.90;1.38;;;6.30;84.50;;;;;;5015525;28;20554;-72
2022/01/10 06:13:55;;;;;;;1.92;1.10;;;6.30;84.50;;;;;;5015625;28;20022;-73
2022/01/10 06:16:21;;;;;;;4.47;1.33;;;6.30;84.00;;;;;;5015527;28;20053;-71
2022/01/10 06:18:47;;;;;;;4.28;1.27;;;6.30;84.10;;;;;;5015641;28;20026;-73
2022/01/10 06:21:12;;;;;;;2.60;1.13;;;6.30;83.70;;;;;;5016503;28;20037;-73
2022/01/10 06:23:38;;;;;;;2.20;1.20;;;6.30;83.50;;;;;;5015121;28;20428;-72
2022/01/10 06:26:04;;;;;;;5.50;1.20;;;6.30;83.90;;;;;;5015390;28;20408;-71
2022/01/10 06:28:30;;;;;;;3.13;1.33;;;6.40;83.50;;;;;;5015830;28;20471;-74
2022/01/10 06:30:55;;;;;;;3.20;1.20;;;6.40;83.40;;;;;;5015475;28;20025;-71
2022/01/10 06:33:21;;;;;;;4.22;1.23;;;6.40;83.50;;;;;;5015164;28;20030;-72
2022/01/10 06:35:47;;;;;;;4.47;1.40;;;6.40;83.50;;;;;;5015146;28;20452;-72
2022/01/10 06:38:12;;;;;;;2.70;1.20;;;6.40;83.30;;;;;;5014648;28;20030;-72
2022/01/10 06:40:38;;;;;;;6.35;1.38;;;6.40;83.40;;;;;;5015150;28;20364;-74
2022/01/10 06:43:05;;;;;;;2.45;1.35;;;6.40;82.70;;;;;;5014613;28;20042;-72
2022/01/10 06:45:30;;;;;;;2.78;1.55;;;6.40;82.70;;;;;;5014650;28;20065;-73
2022/01/10 06:47:56;;;;;;;2.67;1.38;;;6.50;82.70;;;;;;5014511;28;20506;-72
2022/01/10 06:50:22;;;;;;;2.78;1.30;;;6.50;82.80;;;;;;5014757;28;20110;-72
2022/01/10 06:52:50;;;;;;;3.00;1.30;;;6.50;82.90;;;;;;5014813;28;20084;-72
2022/01/10 06:55:16;;;;;;;3.70;1.75;;;6.50;82.70;;;;;;5014726;28;20088;-73
2022/01/10 06:57:42;;;;;;;3.45;1.35;;;6.50;82.70;;;;;;5014689;28;20034;-72
2022/01/10 07:00:08;;;;;;;6.05;1.40;;;6.50;82.50;;;;;;5014912;28;20424;-73
2022/01/10 07:02:35;;;;;;;2.80;1.25;;;6.60;82.70;;;;;;5014794;28;20022;-73
2022/01/10 07:05:01;;;;;;;3.22;1.40;;;6.60;82.60;;;;;;5013562;28;20021;-72
2022/01/10 07:07:26;;;;;;;2.83;1.30;;;6.60;82.50;;;;;;5014456;28;20081;-73
2022/01/10 07:09:52;;;;;;;5.18;1.55;;;6.60;82.10;;;;;;5014460;28;20573;-73
2022/01/10 07:12:18;;;;;;;2.95;1.45;;;6.60;82.10;;;;;;5014206;28;20025;-71
2022/01/10 07:14:43;;;;;;;5.07;1.80;;;6.70;82.50;;;;;;5014236;28;20410;-74
2022/01/10 07:17:09;;;;;;;5.35;1.80;;;6.70;82.40;;;;;;5014553;28;20037;-71
2022/01/10 07:19:36;;;;;;;6.35;2.55;;;6.70;82.00;;;;;;5014489;28;20029;-74
2022/01/10 07:22:03;;;;;;;5.03;2.00;;;6.70;82.30;;;;;;5014622;28;20026;-72
2022/01/10 07:24:28;;;;;;;5.05;2.03;;;6.70;82.00;;;;;;5014891;28;20025;-72
2022/01/10 07:26:54;;;;;;;5.72;2.10;;;6.80;81.80;;;;;;5013120;28;20109;-73
2022/01/10 07:29:21;;;;;;;4.10;1.73;;;6.80;81.80;;;;;;5014565;28;20018;-73
2022/01/10 07:31:47;;;;;;;6.50;2.17;;;6.80;81.00;;;;;;5014343;28;20101;-74
2022/01/10 07:34:15;;;;;;;3.85;1.80;;;6.90;81.80;;;;;;5014089;28;20101;-74
2022/01/10 07:36:41;;;;;;;4.15;1.70;;;6.90;81.90;;;;;;5013520;28;20060;-75
2022/01/10 07:39:08;;;;;;;4.35;1.70;;;7.00;82.00;;;;;;5013894;28;20022;-74
2022/01/10 07:41:34;;;;;;;3.50;1.65;;;7.10;81.80;;;;;;5014204;28;20026;-71
2022/01/10 07:44:00;;;;;;;5.93;1.88;;;7.20;81.40;;;;;;5014317;28;20038;-75
2022/01/10 07:46:26;;;;;;;6.07;1.65;;;7.20;81.40;;;;;;5012568;28;20065;-71
2022/01/10 07:48:54;;;;;;;5.22;1.80;;;7.30;81.50;;;;;;5014111;28;20535;-74
2022/01/10 07:51:24;;;;;;;3.38;1.40;;;7.40;81.60;;;;;;5013040;28;20029;-72
2022/01/10 07:53:50;;;;;;;6.82;1.75;;;7.40;80.40;;;;;;5013973;28;20029;-74
2022/01/10 07:56:16;;;;;;;4.70;1.48;;;7.40;81.20;;;;;;5013603;28;20570;-74
2022/01/10 07:58:42;;;;;;;4.65;1.70;;;7.40;80.90;;;;;;5012097;28;20165;-74
2022/01/10 08:01:07;;;;;;;4.00;1.63;;;7.50;80.90;;;;;;5013886;28;20120;-74
2022/01/10 08:03:33;;;;;;;5.03;1.70;;;7.50;80.60;;;;;;5012538;28;20097;-74
2022/01/10 08:06:00;;;;;;;3.55;1.50;;;7.50;81.00;;;;;;5013441;28;20042;-71
2022/01/10 08:08:25;;;;;;;6.32;2.20;;;7.50;80.50;;;;;;5013575;28;20030;-73
2022/01/10 08:10:51;;;;;;;4.25;1.75;;;7.50;80.50;;;;;;5011871;28;20533;-70
2022/01/10 08:13:17;;;;;;;6.88;2.05;;;7.60;80.40;;;;;;5013216;28;20025;-72
2022/01/10 08:15:43;;;;;;;5.50;1.77;;;7.60;80.10;;;;;;5013198;28;20030;-70
2022/01/10 08:18:10;;;;;;;6.80;2.10;;;7.60;80.20;;;;;;5012634;28;20036;-71
2022/01/10 08:20:35;;;;;;;6.88;1.95;;;7.70;80.00;;;;;;5013089;28;20025;-71
2022/01/10 08:23:01;;;;;;;4.55;1.90;;;7.80;80.10;;;;;;5012940;28;20101;-73
2022/01/10 08:25:27;;;;;;;10.77;2.00;;;7.80;79.90;;;;;;5013055;28;20050;-71
2022/01/10 08:27:52;;;;;;;6.43;2.03;;;7.90;79.50;;;;;;5013146;28;20541;-70
2022/01/10 08:30:18;;;;;;;5.20;1.70;;;7.90;79.30;;;;;;5012956;28;20372;-71
2022/01/10 08:32:46;;;;;;;5.45;1.80;;;7.90;78.30;;;;;;5012899;28;20060;-71
2022/01/10 08:35:12;;;;;;;7.63;1.90;;;7.90;78.40;;;;;;5011608;28;20030;-71
2022/01/10 08:37:38;;;;;;;5.40;2.10;;;8.00;78.30;;;;;;5011441;28;20501;-70
2022/01/10 08:40:04;;;;;;;5.70;2.20;;;8.00;78.50;;;;;;5013013;28;20072;-72
2022/01/10 08:42:31;;;;;;;6.05;2.08;;;8.00;78.20;;;;;;5013056;28;20140;-72
2022/01/10 08:44:57;;;;;;;3.85;1.67;;;8.10;77.80;;;;;;5012802;28;20385;-71
2022/01/10 08:47:23;;;;;;;5.25;1.75;;;8.10;77.90;;;;;;5012851;28;20065;-71
2022/01/10 08:49:49;;;;;;;5.50;1.80;;;8.20;77.10;;;;;;5012772;28;20037;-69
2022/01/10 08:52:15;;;;;;;6.72;1.80;;;8.20;76.90;;;;;;5012789;28;20471;-71
2022/01/10 08:54:41;;;;;;;4.85;1.85;;;8.30;76.80;;;;;;5012459;28;20072;-71
2022/01/10 08:57:07;;;;;;;6.47;1.80;;;8.30;76.40;;;;;;5012607;28;20460;-70
2022/01/10 08:59:33;;;;;;;6.22;1.85;;;8.40;75.90;;;;;;5012425;28;20034;-72
2022/01/10 09:01:59;;;;;;;3.10;1.40;;;8.50;76.00;;;;;;5012624;28;20049;-71
2022/01/10 09:04:25;;;;;;;5.53;1.83;;;8.50;75.20;;;;;;5013043;28;20026;-73
2022/01/10 09:06:54;;;;;;;5.80;1.70;;;8.50;74.90;;;;;;5012535;28;20129;-70
2022/01/10 09:09:21;;;;;;;4.22;1.67;;;8.60;75.20;;;;;;5012747;28;20037;-71
2022/01/10 09:11:47;;;;;;;4.40;1.52;;;8.60;74.80;;;;;;5012697;28;20084;-71
2022/01/10 09:14:14;;;;;;;4.82;1.70;;;8.70;74.20;;;;;;5012523;28;20034;-72
2022/01/10 09:16:41;;;;;;;3.92;1.63;;;8.70;74.00;;;;;;5012647;28;20133;-73
2022/01/10 09:19:07;;;;;;;4.85;1.58;;;8.70;74.30;;;;;;5012413;28;20022;-73
2022/01/10 09:21:33;;;;;;;7.20;1.38;;;8.80;73.70;;;;;;5012564;28;20497;-72
2022/01/10 09:23:59;;;;;;;4.68;1.40;;;8.70;73.40;;;;;;5012893;28;20468;-72
2022/01/10 09:26:25;;;;;;;6.53;1.63;;;8.80;73.90;;;;;;5012218;28;20069;-71
2022/01/10 09:28:51;;;;;;;5.65;1.50;;;8.80;73.20;;;;;;5012690;28;20033;-73
2022/01/10 09:31:17;;;;;;;4.18;1.30;;;8.80;73.00;;;;;;5012495;28;20217;-71
2022/01/10 09:33:47;;;;;;;2.92;1.30;;;8.80;72.80;;;;;;5012640;28;20036;-72
2022/01/10 09:36:13;;;;;;;3.67;1.45;;;8.80;72.80;;;;;;5012459;28;20026;-72
2022/01/10 09:38:39;;;;;;;4.93;1.20;;;9.00;73.20;;;;;;5012297;28;20410;-72
2022/01/10 09:41:05;;;;;;;3.55;1.38;;;9.00;72.50;;;;;;5012322;28;20379;-73
2022/01/10 09:43:31;;;;;;;2.63;1.17;;;9.00;72.70;;;;;;5010975;28;20335;-71
2022/01/10 09:45:57;;;;;;;2.13;1.00;;;9.10;72.20;;;;;;5012435;28;20439;-71
2022/01/10 09:48:23;;;;;;;1.65;1.00;;;9.10;71.90;;;;;;5012124;28;20061;-71
2022/01/10 09:50:49;;;;;;;4.05;1.02;;;9.10;71.80;;;;;;5012356;28;20357;-71
2022/01/10 09:53:17;;;;;;;2.50;1.00;;;9.10;71.60;;;;;;5012547;28;20044;-72
2022/01/10 09:55:43;;;;;;;3.95;1.08;;;9.10;71.20;;;;;;5012620;28;20074;-71
2022/01/10 09:58:09;;;;;;;3.85;1.10;;;9.20;71.40;;;;;;5012268;28;20034;-72
2022/01/10 10:00:35;;;;;;;1.75;1.08;;;9.20;71.10;;;;;;5014806;28;20072;-71
2022/01/10 10:03:02;;;;;;;3.38;1.40;;;9.20;70.70;;;;;;5015829;28;20479;-73
2022/01/10 10:05:27;;;;;;;4.72;1.30;;;9.30;70.70;;;;;;5015930;28;20032;-73
2022/01/10 10:07:53;;;;;;;2.70;1.15;;;9.30;70.40;;;;;;5015560;28;20466;-72
2022/01/10 10:10:21;;;;;;;3.00;1.20;;;9.30;70.00;;;;;;5015708;28;20121;-72
2022/01/10 10:12:49;;;;;;;4.63;1.55;;;9.40;70.20;;;;;;5015931;28;20037;-72
2022/01/10 10:15:19;;;;;;;2.15;1.15;;;9.40;70.20;;;;;;5015314;28;20096;-71
2022/01/10 10:17:46;;;;;;;3.17;1.10;;;9.50;70.10;;;;;;5015274;28;20521;-70
2022/01/10 10:20:18;;;;;;;2.00;1.25;;;9.50;70.20;;;;;;5015456;28;20467;-70
2022/01/10 10:22:46;;;;;;;2.55;1.00;;;9.60;70.00;;;;;;5015501;28;20132;-70
2022/01/10 10:25:12;;;;;;;4.32;1.08;;;9.50;69.40;;;;;;5015614;28;20026;-72
2022/01/10 10:27:46;;;;;;;3.08;1.30;;;9.50;69.90;;;;;;5015261;28;20042;-72
2022/01/10 10:30:20;;;;;;;;;;;9.60;69.80;;;;;;5015576;28;20200;-70
2022/01/10 10:32:46;;;;;;;2.57;1.23;;;9.70;69.30;;;;;;5015587;28;19983;-71
2022/01/10 10:35:12;;;;;;;3.95;1.30;;;9.60;70.10;;;;;;5015439;28;20030;-72
2022/01/10 10:37:41;;;;;;;1.75;1.08;;;9.60;69.30;;;;;;5013863;28;20036;-72
2022/01/10 10:40:10;;;;;;;3.22;1.10;;;9.70;69.40;;;;;;5014111;28;20490;-71
2022/01/10 10:42:39;;;;;;;3.35;1.23;;;9.70;69.30;;;;;;5013785;28;20359;-72
2022/01/10 10:45:07;;;;;;;2.78;1.35;;;9.80;69.30;;;;;;5015030;28;20022;-71
2022/01/10 10:47:35;;;;;;;4.78;1.45;;;9.80;68.90;;;;;;5015366;28;20050;-71
2022/01/10 10:50:04;;;;;;;2.85;1.30;;;9.90;68.80;;;;;;5014809;28;20489;-71
2022/01/10 10:52:37;;;;;;;2.13;1.30;;;9.90;68.30;;;;;;5014870;28;20469;-71
2022/01/10 10:55:14;;;;;;;2.72;1.27;;;9.90;68.50;;;;;;5014899;28;20088;-70
2022/01/10 10:57:45;;;;;;;3.30;1.50;;;10.00;66.50;;;;;;5015004;28;20017;-73
2022/01/10 11:00:14;;;;;;;3.13;1.23;;;10.00;66.90;;;;;;5014710;28;20172;-71
2022/01/10 11:02:41;;;;;;;4.20;1.40;;;10.10;67.00;;;;;;5014892;28;20029;-70
2022/01/10 11:05:08;;;;;;;2.40;1.10;;;10.10;66.50;;;;;;5014923;28;20021;-72
2022/01/10 11:07:36;;;;;;;4.03;1.23;;;10.20;66.60;;;;;;5014757;28;20049;-71
2022/01/10 11:10:06;;;;;;;3.15;1.38;;;10.30;66.30;;;;;;5015100;28;20072;-71
2022/01/10 11:12:34;;;;;;;3.22;1.38;;;10.50;65.60;;;;;;5014028;28;20117;-71
2022/01/10 11:15:00;;;;;;;3.85;1.60;;;10.50;65.10;;;;;;5014655;28;20057;-71
2022/01/10 11:17:27;;;;;;;2.80;1.30;;;10.50;64.70;;;;;;5014419;28;20022;-71
2022/01/10 11:20:18;;;;;;;3.25;1.27;;;10.50;64.50;;;;;;5014335;28;20033;-72
2022/01/10 11:22:49;;;;;;;4.25;1.30;;;10.60;64.80;;;;;;5013813;28;20061;-70
2022/01/10 11:25:20;;;;;;;4.82;1.40;;;10.70;64.90;;;;;;5014426;28;20506;-72
2022/01/10 11:27:47;;;;;;;4.57;1.40;;;10.70;63.40;;;;;;5014317;28;20084;-71
2022/01/10 11:30:24;;;;;;;6.10;1.90;;;10.80;63.00;;;;;;5014408;28;20037;-71
2022/01/10 11:33:17;;;;;;;5.32;1.70;;;10.90;61.80;;;;;;5014164;28;20025;-71
2022/01/10 11:35:57;;;;;;;3.83;1.80;;;11.10;61.20;;;;;;5013831;28;20077;-72
2022/01/10 11:38:23;;;;;;;3.88;1.30;;;11.10;60.90;;;;;;5012453;28;20022;-73
2022/01/10 11:41:13;;;;;;;2.85;1.23;;;11.10;60.50;;;;;;5014069;28;20056;-71
2022/01/10 11:43:48;;;;;;;3.75;1.60;;;11.20;60.70;;;;;;5012917;28;20037;-73
2022/01/10 11:46:26;;;;;;;4.25;1.50;;;11.20;59.90;;;;;;5014167;28;20033;-71
2022/01/10 11:48:59;;;;;;;8.18;1.70;;;11.30;60.80;;;;;;5012041;23;20105;-70
2022/01/10 11:51:34;;;;;;;4.53;1.90;;;11.40;59.80;;;;;;4974815;28;20392;-69
2022/01/10 11:54:15;;;;;;;5.60;1.55;;;11.50;59.20;;;;;;4975091;28;20026;-69
2022/01/10 11:57:02;;;;;;;5.55;1.90;;;11.50;59.40;;;;;;4975065;28;20026;-70
2022/01/10 11:59:32;;;;;;;6.72;1.92;;;11.50;59.40;;;;;;4990859;28;20468;-70
2022/01/10 12:02:04;;;;;;;6.25;2.03;;;11.40;58.90;;;;;;4994339;28;20049;-69
2022/01/10 12:04:36;;;;;;;5.55;1.55;;;11.40;59.00;;;;;;4993824;28;20038;-70
2022/01/10 12:07:03;;;;;;;4.47;1.77;;;11.30;58.60;;;;;;4992951;28;20105;-71
2022/01/10 12:09:29;;;;;;;6.43;1.73;;;11.30;59.20;;;;;;4993939;28;20050;-71
2022/01/10 12:11:58;;;;;;;5.50;1.90;;;11.40;59.20;;;;;;4993942;28;20050;-70
2022/01/10 12:14:25;;;;;;;5.38;1.67;;;11.40;58.60;;;;;;4994205;28;20025;-69
2022/01/10 12:16:52;;;;;;;7.25;2.80;;;11.50;58.70;;;;;;4993955;28;20409;-69
2022/01/10 12:19:19;;;;;;;4.07;1.45;;;11.40;57.30;;;;;;4993973;28;20033;-69
2022/01/10 12:21:45;;;;;;;6.15;1.90;;;11.40;57.40;;;;;;4993667;28;20036;-71
2022/01/10 12:24:12;;;;;;;6.05;2.15;;;11.40;56.90;;;;;;4995356;28;20092;-69
2022/01/10 12:26:40;;;;;;;5.60;1.70;;;11.50;56.90;;;;;;4993749;28;20041;-71
2022/01/10 12:29:08;;;;;;;4.40;1.88;;;11.50;56.70;;;;;;4993546;28;20085;-72
2022/01/10 12:31:36;;;;;;;6.13;1.95;;;11.50;56.20;;;;;;4993853;28;20042;-71
2022/01/10 12:34:03;;;;;;;4.65;1.75;;;11.50;56.40;;;;;;4992427;28;20030;-69
2022/01/10 12:36:32;;;;;;;3.88;1.90;;;11.60;56.50;;;;;;4993634;28;20396;-70
2022/01/10 12:39:03;;;;;;;3.30;1.52;;;11.60;56.60;;;;;;4993731;28;20019;-71
2022/01/10 12:41:29;;;;;;;5.85;1.80;;;11.50;56.10;;;;;;4993705;28;20100;-70
2022/01/10 12:43:56;;;;;;;4.60;1.67;;;11.50;56.00;;;;;;4993562;28;20029;-72
2022/01/10 12:46:23;;;;;;;3.42;1.58;;;11.60;55.80;;;;;;4993538;28;20066;-69
2022/01/10 12:48:51;;;;;;;4.05;1.77;;;11.60;55.60;;;;;;4993220;28;20045;-73
2022/01/10 12:51:18;;;;;;;4.78;2.10;;;11.70;55.30;;;;;;4993644;28;20072;-71
2022/01/10 12:53:48;;;;;;;4.35;1.90;;;11.80;55.20;;;;;;4993224;28;20054;-74
2022/01/10 12:56:19;;;;;;;5.25;1.80;;;11.80;54.50;;;;;;4992084;28;20044;-70
2022/01/10 12:58:45;;;;;;;3.03;1.42;;;11.90;54.20;;;;;;4993174;28;20030;-70
2022/01/10 13:01:13;;;;;;;4.63;1.80;;;11.90;54.30;;;;;;4993176;28;20030;-70
2022/01/10 13:03:42;;;;;;;6.38;1.60;;;11.90;53.40;;;;;;4993108;28;20030;-71
2022/01/10 13:06:08;;;;;;;3.65;1.50;;;11.90;53.40;;;;;;4991918;28;20106;-70